sensor_id;sensor_type;location;lat;lon;timestamp;pressure;altitude;pressure_sealevel;temperature;humidity
68508;BME280;55510;49.560;19.090;2023-12-20T05:42:24;95718.78;;;2.20;90.60
68508;BME280;55510;49.560;19.090;2023-12-20T05:45:25;95709.28;;;2.32;90.06
68508;BME280;55510;49.560;19.090;2023-12-20T05:48:25;95710.06;;;2.39;89.87
68508;BME280;55510;49.560;19.090;2023-12-20T05:51:26;95708.38;;;2.52;87.96
68508;BME280;55510;49.560;19.090;2023-12-20T05:54:27;95713.19;;;2.68;87.10
68508;BME280;55510;49.560;19.090;2023-12-20T05:57:28;95729.72;;;2.75;88.50
68508;BME280;55510;49.560;19.090;2023-12-20T06:00:28;95706.81;;;2.83;88.52
68508;BME280;55510;49.560;19.090;2023-12-20T06:03:29;95710.03;;;2.92;89.35
68508;BME280;55510;49.560;19.090;2023-12-20T06:06:30;95703.09;;;2.97;89.56
68508;BME280;55510;49.560;19.090;2023-12-20T06:09:31;95690.53;;;2.99;90.81
68508;BME280;55510;49.560;19.090;2023-12-20T06:12:31;95683.09;;;2.96;92.85
68508;BME280;55510;49.560;19.090;2023-12-20T06:15:34;95678.25;;;2.93;94.65
68508;BME280;55510;49.560;19.090;2023-12-20T06:18:34;95678.28;;;2.86;97.00
68508;BME280;55510;49.560;19.090;2023-12-20T06:21:37;95671.22;;;2.87;97.51
68508;BME280;55510;49.560;19.090;2023-12-20T06:24:37;95666.41;;;2.84;99.20
68508;BME280;55510;49.560;19.090;2023-12-20T06:27:38;95664.38;;;2.79;99.96
68508;BME280;55510;49.560;19.090;2023-12-20T06:30:39;95663.38;;;2.80;99.70
68508;BME280;55510;49.560;19.090;2023-12-20T06:33:40;95665.03;;;2.74;100.00
68508;BME280;55510;49.560;19.090;2023-12-20T06:36:42;95668.31;;;2.63;100.00
68508;BME280;55510;49.560;19.090;2023-12-20T06:39:43;95671.75;;;2.64;100.00
68508;BME280;55510;49.560;19.090;2023-12-20T06:42:44;95695.22;;;2.65;100.00
68508;BME280;55510;49.560;19.090;2023-12-20T06:45:44;95688.16;;;2.59;100.00
68508;BME280;55510;49.560;19.090;2023-12-20T06:48:45;95694.66;;;2.50;100.00
68508;BME280;55510;49.560;19.090;2023-12-20T06:51:46;95688.63;;;2.49;100.00
68508;BME280;55510;49.560;19.090;2023-12-20T06:54:47;95683.81;;;2.39;100.00
68508;BME280;55510;49.560;19.090;2023-12-20T06:57:48;95694.91;;;2.41;100.00
68508;BME280;55510;49.560;19.090;2023-12-20T07:00:49;95693.03;;;2.49;100.00
68508;BME280;55510;49.560;19.090;2023-12-20T07:03:50;95705.34;;;2.55;100.00
68508;BME280;55510;49.560;19.090;2023-12-20T07:06:51;95704.50;;;2.61;100.00
68508;BME280;55510;49.560;19.090;2023-12-20T07:09:52;95701.09;;;2.60;100.00
68508;BME280;55510;49.560;19.090;2023-12-20T07:12:53;95716.22;;;2.65;100.00
68508;BME280;55510;49.560;19.090;2023-12-20T07:15:55;95709.31;;;2.71;100.00
68508;BME280;55510;49.560;19.090;2023-12-20T07:18:56;95717.59;;;2.74;100.00
68508;BME280;55510;49.560;19.090;2023-12-20T07:21:57;95726.84;;;2.77;100.00
68508;BME280;55510;49.560;19.090;2023-12-20T07:24:58;95738.53;;;2.88;98.95
68508;BME280;55510;49.560;19.090;2023-12-20T07:27:59;95734.97;;;3.08;96.82
68508;BME280;55510;49.560;19.090;2023-12-20T07:31:00;95746.88;;;3.17;95.15
68508;BME280;55510;49.560;19.090;2023-12-20T07:34:00;95746.91;;;3.10;94.76
68508;BME280;55510;49.560;19.090;2023-12-20T07:37:01;95758.56;;;3.21;94.29
68508;BME280;55510;49.560;19.090;2023-12-20T07:40:02;95760.03;;;3.17;95.83
68508;BME280;55510;49.560;19.090;2023-12-20T07:43:03;95765.88;;;3.19;93.70
68508;BME280;55510;49.560;19.090;2023-12-20T07:46:06;95761.63;;;3.18;95.06
68508;BME280;55510;49.560;19.090;2023-12-20T07:49:06;95757.31;;;3.24;94.43
68508;BME280;55510;49.560;19.090;2023-12-20T07:52:09;95757.72;;;3.27;94.89
68508;BME280;55510;49.560;19.090;2023-12-20T07:55:09;95756.53;;;3.23;93.96
68508;BME280;55510;49.560;19.090;2023-12-20T07:58:10;95755.34;;;3.19;94.12
68508;BME280;55510;49.560;19.090;2023-12-20T08:01:11;95761.03;;;3.16;94.94
68508;BME280;55510;49.560;19.090;2023-12-20T08:04:12;95762.88;;;3.09;95.00
68508;BME280;55510;49.560;19.090;2023-12-20T08:07:12;95755.38;;;3.12;95.35
68508;BME280;55510;49.560;19.090;2023-12-20T08:10:13;95755.22;;;3.07;95.33
68508;BME280;55510;49.560;19.090;2023-12-20T08:13:14;95753.75;;;3.18;95.75
68508;BME280;55510;49.560;19.090;2023-12-20T08:16:16;95741.44;;;3.12;94.73
68508;BME280;55510;49.560;19.090;2023-12-20T08:19:17;95751.72;;;3.13;95.58
68508;BME280;55510;49.560;19.090;2023-12-20T08:22:18;95755.78;;;3.16;95.20
68508;BME280;55510;49.560;19.090;2023-12-20T08:25:19;95738.72;;;3.25;95.60
68508;BME280;55510;49.560;19.090;2023-12-20T08:28:20;95744.19;;;3.24;95.94
68508;BME280;55510;49.560;19.090;2023-12-20T08:31:20;95750.16;;;3.38;94.49
68508;BME280;55510;49.560;19.090;2023-12-20T08:34:22;95754.06;;;3.28;95.10
68508;BME280;55510;49.560;19.090;2023-12-20T08:37:23;95753.34;;;3.14;96.53
68508;BME280;55510;49.560;19.090;2023-12-20T08:40:24;95762.28;;;3.07;97.53
68508;BME280;55510;49.560;19.090;2023-12-20T08:43:25;95760.66;;;3.05;98.24
68508;BME280;55510;49.560;19.090;2023-12-20T08:46:26;95748.75;;;3.10;98.11
68508;BME280;55510;49.560;19.090;2023-12-20T08:49:26;95761.47;;;3.13;98.11
68508;BME280;55510;49.560;19.090;2023-12-20T08:52:28;95766.53;;;3.08;98.65
68508;BME280;55510;49.560;19.090;2023-12-20T08:55:29;95757.44;;;3.03;99.21
68508;BME280;55510;49.560;19.090;2023-12-20T08:58:31;95760.31;;;2.95;99.56
68508;BME280;55510;49.560;19.090;2023-12-20T09:01:32;95758.72;;;2.94;100.00
68508;BME280;55510;49.560;19.090;2023-12-20T09:04:32;95758.94;;;2.93;100.00
68508;BME280;55510;49.560;19.090;2023-12-20T09:07:33;95755.13;;;2.88;100.00
68508;BME280;55510;49.560;19.090;2023-12-20T09:10:34;95756.34;;;2.86;100.00
68508;BME280;55510;49.560;19.090;2023-12-20T09:13:35;95764.41;;;2.91;100.00
68508;BME280;55510;49.560;19.090;2023-12-20T09:16:35;95756.44;;;2.66;100.00
68508;BME280;55510;49.560;19.090;2023-12-20T09:19:36;95762.88;;;2.63;100.00
68508;BME280;55510;49.560;19.090;2023-12-20T09:22:37;95765.34;;;2.58;100.00
68508;BME280;55510;49.560;19.090;2023-12-20T09:25:38;95762.50;;;2.59;100.00
68508;BME280;55510;49.560;19.090;2023-12-20T09:28:39;95767.59;;;2.54;100.00
68508;BME280;55510;49.560;19.090;2023-12-20T09:31:41;95769.56;;;2.59;100.00
68508;BME280;55510;49.560;19.090;2023-12-20T09:34:44;95768.63;;;2.46;100.00
68508;BME280;55510;49.560;19.090;2023-12-20T09:37:44;95764.63;;;2.37;100.00
68508;BME280;55510;49.560;19.090;2023-12-20T09:40:47;95762.59;;;2.39;100.00
68508;BME280;55510;49.560;19.090;2023-12-20T09:43:48;95756.72;;;2.37;100.00
68508;BME280;55510;49.560;19.090;2023-12-20T09:46:53;95755.72;;;2.38;100.00
68508;BME280;55510;49.560;19.090;2023-12-20T09:49:55;95745.63;;;2.35;100.00
68508;BME280;55510;49.560;19.090;2023-12-20T09:52:57;95741.16;;;2.42;100.00
68508;BME280;55510;49.560;19.090;2023-12-20T09:55:59;95732.28;;;2.37;100.00
68508;BME280;55510;49.560;19.090;2023-12-20T09:59:01;95733.69;;;2.39;100.00
68508;BME280;55510;49.560;19.090;2023-12-20T10:02:03;95736.69;;;2.43;100.00
68508;BME280;55510;49.560;19.090;2023-12-20T10:05:07;95737.09;;;2.46;100.00
68508;BME280;55510;49.560;19.090;2023-12-20T10:08:09;95729.41;;;2.52;100.00
68508;BME280;55510;49.560;19.090;2023-12-20T10:11:10;95725.94;;;2.58;100.00
68508;BME280;55510;49.560;19.090;2023-12-20T10:14:10;95733.44;;;2.54;100.00
68508;BME280;55510;49.560;19.090;2023-12-20T10:17:11;95740.72;;;2.52;100.00
68508;BME280;55510;49.560;19.090;2023-12-20T10:20:12;95735.06;;;2.55;100.00
68508;BME280;55510;49.560;19.090;2023-12-20T10:23:14;95741.28;;;2.61;100.00
68508;BME280;55510;49.560;19.090;2023-12-20T10:26:19;95747.19;;;2.50;100.00
68508;BME280;55510;49.560;19.090;2023-12-20T10:29:20;95744.16;;;2.53;100.00
68508;BME280;55510;49.560;19.090;2023-12-20T10:32:21;95740.25;;;2.62;100.00
68508;BME280;55510;49.560;19.090;2023-12-20T10:35:23;95736.25;;;2.53;100.00
68508;BME280;55510;49.560;19.090;2023-12-20T10:38:24;95738.72;;;2.41;100.00
68508;BME280;55510;49.560;19.090;2023-12-20T10:41:30;95733.09;;;2.44;100.00
68508;BME280;55510;49.560;19.090;2023-12-20T10:44:30;95738.72;;;2.47;100.00
68508;BME280;55510;49.560;19.090;2023-12-20T10:47:32;95737.16;;;2.33;100.00
68508;BME280;55510;49.560;19.090;2023-12-20T10:50:36;95738.78;;;2.34;100.00
68508;BME280;55510;49.560;19.090;2023-12-20T10:53:39;95746.88;;;2.26;100.00
68508;BME280;55510;49.560;19.090;2023-12-20T10:56:41;95746.88;;;2.26;100.00
68508;BME280;55510;49.560;19.090;2023-12-20T10:59:43;95729.06;;;2.35;100.00
68508;BME280;55510;49.560;19.090;2023-12-20T11:02:49;95732.09;;;2.38;100.00
68508;BME280;55510;49.560;19.090;2023-12-20T11:06:00;95721.81;;;2.30;100.00
68508;BME280;55510;49.560;19.090;2023-12-20T11:09:21;95730.25;;;2.45;100.00
68508;BME280;55510;49.560;19.090;2023-12-20T11:12:32;95729.63;;;2.50;100.00
68508;BME280;55510;49.560;19.090;2023-12-20T11:15:36;95719.91;;;2.51;100.00
68508;BME280;55510;49.560;19.090;2023-12-20T11:18:40;95726.75;;;2.65;100.00
68508;BME280;55510;49.560;19.090;2023-12-20T11:21:41;95733.38;;;2.68;100.00
68508;BME280;55510;49.560;19.090;2023-12-20T11:24:44;95730.47;;;2.83;100.00
68508;BME280;55510;49.560;19.090;2023-12-20T11:28:08;95735.72;;;2.83;100.00
68508;BME280;55510;49.560;19.090;2023-12-20T11:31:14;95734.47;;;2.92;100.00
68508;BME280;55510;49.560;19.090;2023-12-20T11:34:14;95732.25;;;2.89;100.00
68508;BME280;55510;49.560;19.090;2023-12-20T11:37:15;95745.22;;;2.84;100.00
68508;BME280;55510;49.560;19.090;2023-12-20T11:40:17;95732.94;;;2.78;100.00
68508;BME280;55510;49.560;19.090;2023-12-20T11:43:36;95729.88;;;2.81;100.00
68508;BME280;55510;49.560;19.090;2023-12-20T11:46:37;95739.97;;;2.84;100.00
68508;BME280;55510;49.560;19.090;2023-12-20T11:49:38;95742.63;;;2.77;100.00
68508;BME280;55510;49.560;19.090;2023-12-20T11:52:39;95739.88;;;2.65;100.00
68508;BME280;55510;49.560;19.090;2023-12-20T11:55:40;95744.31;;;2.58;100.00
68508;BME280;55510;49.560;19.090;2023-12-20T11:58:40;95732.97;;;2.64;100.00
68508;BME280;55510;49.560;19.090;2023-12-20T12:01:48;95733.41;;;2.61;100.00
68508;BME280;55510;49.560;19.090;2023-12-20T12:04:50;95720.06;;;2.63;100.00
68508;BME280;55510;49.560;19.090;2023-12-20T12:07:53;95723.09;;;2.66;100.00
68508;BME280;55510;49.560;19.090;2023-12-20T12:10:54;95711.38;;;2.62;100.00
68508;BME280;55510;49.560;19.090;2023-12-20T12:13:55;95715.44;;;2.58;100.00
68508;BME280;55510;49.560;19.090;2023-12-20T12:16:56;95711.00;;;2.52;100.00
68508;BME280;55510;49.560;19.090;2023-12-20T12:20:05;95713.22;;;2.55;100.00
68508;BME280;55510;49.560;19.090;2023-12-20T12:23:06;95703.13;;;2.52;100.00
68508;BME280;55510;49.560;19.090;2023-12-20T12:26:07;95686.00;;;2.49;100.00
68508;BME280;55510;49.560;19.090;2023-12-20T12:29:09;95685.41;;;2.40;100.00
68508;BME280;55510;49.560;19.090;2023-12-20T12:32:10;95696.09;;;2.45;100.00
68508;BME280;55510;49.560;19.090;2023-12-20T12:35:11;95703.03;;;2.33;100.00
68508;BME280;55510;49.560;19.090;2023-12-20T12:38:11;95703.03;;;2.33;100.00
68508;BME280;55510;49.560;19.090;2023-12-20T12:41:13;95706.25;;;2.28;100.00
68508;BME280;55510;49.560;19.090;2023-12-20T12:44:15;95706.47;;;2.27;100.00
68508;BME280;55510;49.560;19.090;2023-12-20T12:47:16;95700.63;;;2.25;100.00
68508;BME280;55510;49.560;19.090;2023-12-20T12:50:17;95707.91;;;2.23;100.00
68508;BME280;55510;49.560;19.090;2023-12-20T12:53:17;95721.41;;;2.26;100.00
68508;BME280;55510;49.560;19.090;2023-12-20T12:56:18;95717.56;;;2.29;100.00
68508;BME280;55510;49.560;19.090;2023-12-20T12:59:19;95724.22;;;2.38;100.00
68508;BME280;55510;49.560;19.090;2023-12-20T13:02:20;95720.59;;;2.32;100.00
68508;BME280;55510;49.560;19.090;2023-12-20T13:05:20;95719.38;;;2.35;100.00
68508;BME280;55510;49.560;19.090;2023-12-20T13:08:21;95708.44;;;2.38;100.00
68508;BME280;55510;49.560;19.090;2023-12-20T13:11:22;95708.88;;;2.35;100.00
68508;BME280;55510;49.560;19.090;2023-12-20T13:14:23;95701.94;;;2.47;100.00
68508;BME280;55510;49.560;19.090;2023-12-20T13:17:23;95701.19;;;2.34;100.00
68508;BME280;55510;49.560;19.090;2023-12-20T13:20:24;95701.66;;;2.24;100.00
68508;BME280;55510;49.560;19.090;2023-12-20T13:23:25;95702.03;;;2.21;100.00
68508;BME280;55510;49.560;19.090;2023-12-20T13:26:26;95692.38;;;2.14;100.00
68508;BME280;55510;49.560;19.090;2023-12-20T13:29:27;95688.31;;;2.18;100.00
68508;BME280;55510;49.560;19.090;2023-12-20T13:32:28;95679.47;;;2.13;100.00
68508;BME280;55510;49.560;19.090;2023-12-20T13:35:28;95684.28;;;2.16;100.00
68508;BME280;55510;49.560;19.090;2023-12-20T13:38:29;95687.53;;;2.11;100.00
68508;BME280;55510;49.560;19.090;2023-12-20T13:41:31;95689.31;;;2.17;100.00
68508;BME280;55510;49.560;19.090;2023-12-20T13:44:31;95686.94;;;2.09;100.00
68508;BME280;55510;49.560;19.090;2023-12-20T13:47:32;95693.59;;;2.05;100.00
68508;BME280;55510;49.560;19.090;2023-12-20T13:50:33;95689.97;;;2.06;100.00
68508;BME280;55510;49.560;19.090;2023-12-20T13:53:34;95683.28;;;2.10;100.00
68508;BME280;55510;49.560;19.090;2023-12-20T13:56:35;95676.84;;;2.06;100.00
68508;BME280;55510;49.560;19.090;2023-12-20T13:59:35;95679.47;;;2.06;100.00
68508;BME280;55510;49.560;19.090;2023-12-20T14:02:36;95692.00;;;2.04;100.00
68508;BME280;55510;49.560;19.090;2023-12-20T14:05:37;95706.53;;;2.00;100.00
68508;BME280;55510;49.560;19.090;2023-12-20T14:08:37;95701.31;;;2.00;100.00
68508;BME280;55510;49.560;19.090;2023-12-20T14:11:38;95699.28;;;2.02;100.00
68508;BME280;55510;49.560;19.090;2023-12-20T14:14:41;95685.97;;;2.03;100.00
68508;BME280;55510;49.560;19.090;2023-12-20T14:17:42;95696.03;;;2.07;100.00
68508;BME280;55510;49.560;19.090;2023-12-20T14:20:43;95683.72;;;2.07;100.00
68508;BME280;55510;49.560;19.090;2023-12-20T14:23:44;95682.09;;;2.06;100.00
68508;BME280;55510;49.560;19.090;2023-12-20T14:26:46;95676.84;;;2.13;100.00
68508;BME280;55510;49.560;19.090;2023-12-20T14:29:47;95681.44;;;2.17;100.00
68508;BME280;55510;49.560;19.090;2023-12-20T14:32:48;95690.75;;;2.13;100.00
68508;BME280;55510;49.560;19.090;2023-12-20T14:35:48;95689.13;;;2.12;100.00
68508;BME280;55510;49.560;19.090;2023-12-20T14:38:49;95688.13;;;2.13;100.00
68508;BME280;55510;49.560;19.090;2023-12-20T14:41:51;95685.50;;;2.13;100.00
68508;BME280;55510;49.560;19.090;2023-12-20T14:44:51;95690.78;;;2.07;100.00
68508;BME280;55510;49.560;19.090;2023-12-20T14:47:54;95700.47;;;2.06;100.00
68508;BME280;55510;49.560;19.090;2023-12-20T14:50:55;95709.91;;;2.21;100.00
68508;BME280;55510;49.560;19.090;2023-12-20T14:53:56;95706.91;;;2.10;100.00
68508;BME280;55510;49.560;19.090;2023-12-20T14:56:59;95699.22;;;2.15;100.00
68508;BME280;55510;49.560;19.090;2023-12-20T15:00:00;95706.91;;;2.10;100.00
68508;BME280;55510;49.560;19.090;2023-12-20T15:03:01;95695.22;;;2.13;100.00
68508;BME280;55510;49.560;19.090;2023-12-20T15:06:01;95689.13;;;2.19;100.00
68508;BME280;55510;49.560;19.090;2023-12-20T15:09:03;95677.97;;;2.30;100.00
68508;BME280;55510;49.560;19.090;2023-12-20T15:12:06;95670.91;;;2.31;100.00
68508;BME280;55510;49.560;19.090;2023-12-20T15:15:08;95682.31;;;1.98;100.00
68508;BME280;55510;49.560;19.090;2023-12-20T15:18:10;95686.78;;;1.91;100.00
68508;BME280;55510;49.560;19.090;2023-12-20T15:21:10;95700.31;;;1.81;100.00
68508;BME280;55510;49.560;19.090;2023-12-20T15:24:11;95703.34;;;1.84;100.00
68508;BME280;55510;49.560;19.090;2023-12-20T15:27:16;95687.19;;;1.87;100.00
68508;BME280;55510;49.560;19.090;2023-12-20T15:30:17;95668.66;;;1.76;100.00
68508;BME280;55510;49.560;19.090;2023-12-20T15:33:18;95669.84;;;1.73;100.00
68508;BME280;55510;49.560;19.090;2023-12-20T15:36:19;95677.13;;;1.84;100.00
68508;BME280;55510;49.560;19.090;2023-12-20T15:39:20;95686.00;;;1.83;100.00
68508;BME280;55510;49.560;19.090;2023-12-20T15:42:20;95707.00;;;1.83;100.00
68508;BME280;55510;49.560;19.090;2023-12-20T15:45:21;95705.34;;;1.96;100.00
68508;BME280;55510;49.560;19.090;2023-12-20T15:48:22;95715.25;;;2.00;100.00
68508;BME280;55510;49.560;19.090;2023-12-20T15:51:28;95713.41;;;2.01;100.00
68508;BME280;55510;49.560;19.090;2023-12-20T15:54:29;95698.63;;;2.20;100.00
68508;BME280;55510;49.560;19.090;2023-12-20T15:57:29;95710.06;;;2.32;100.00
68508;BME280;55510;49.560;19.090;2023-12-20T16:00:30;95709.47;;;2.30;100.00
68508;BME280;55510;49.560;19.090;2023-12-20T16:03:31;95716.94;;;2.34;100.00
68508;BME280;55510;49.560;19.090;2023-12-20T16:06:32;95714.50;;;2.39;100.00
68508;BME280;55510;49.560;19.090;2023-12-20T16:09:35;95730.66;;;2.42;100.00
68508;BME280;55510;49.560;19.090;2023-12-20T16:12:35;95730.19;;;2.59;100.00
68508;BME280;55510;49.560;19.090;2023-12-20T16:15:36;95721.53;;;2.52;100.00
68508;BME280;55510;49.560;19.090;2023-12-20T16:18:37;95721.34;;;2.46;100.00
68508;BME280;55510;49.560;19.090;2023-12-20T16:21:38;95730.81;;;2.54;100.00
68508;BME280;55510;49.560;19.090;2023-12-20T16:24:39;95733.47;;;2.47;100.00
68508;BME280;55510;49.560;19.090;2023-12-20T16:27:40;95736.69;;;2.43;100.00
68508;BME280;55510;49.560;19.090;2023-12-20T16:30:40;95746.94;;;2.58;100.00
68508;BME280;55510;49.560;19.090;2023-12-20T16:33:41;95740.75;;;2.45;100.00
68508;BME280;55510;49.560;19.090;2023-12-20T16:36:50;95752.88;;;2.40;100.00
68508;BME280;55510;49.560;19.090;2023-12-20T16:39:51;95748.97;;;2.56;100.00
68508;BME280;55510;49.560;19.090;2023-12-20T16:42:53;95745.22;;;2.38;100.00
68508;BME280;55510;49.560;19.090;2023-12-20T16:45:55;95751.31;;;2.32;100.00
68508;BME280;55510;49.560;19.090;2023-12-20T16:48:55;95742.59;;;2.31;100.00
68508;BME280;55510;49.560;19.090;2023-12-20T16:51:56;95741.22;;;2.22;100.00
68508;BME280;55510;49.560;19.090;2023-12-20T16:54:57;95742.25;;;2.14;100.00
68508;BME280;55510;49.560;19.090;2023-12-20T16:57:58;95744.03;;;2.21;100.00
68508;BME280;55510;49.560;19.090;2023-12-20T17:00:58;95751.53;;;2.24;100.00
68508;BME280;55510;49.560;19.090;2023-12-20T17:03:59;95758.19;;;2.20;100.00
68508;BME280;55510;49.560;19.090;2023-12-20T17:07:00;95758.41;;;2.11;100.00
68508;BME280;55510;49.560;19.090;2023-12-20T17:10:00;95760.44;;;2.09;100.00
68508;BME280;55510;49.560;19.090;2023-12-20T17:13:01;95758.03;;;2.08;100.00
68508;BME280;55510;49.560;19.090;2023-12-20T17:16:03;95759.41;;;2.10;100.00
68508;BME280;55510;49.560;19.090;2023-12-20T17:19:03;95754.53;;;2.21;100.00
68508;BME280;55510;49.560;19.090;2023-12-20T17:22:05;95752.97;;;2.13;100.00
68508;BME280;55510;49.560;19.090;2023-12-20T17:25:06;95749.94;;;2.09;100.00
68508;BME280;55510;49.560;19.090;2023-12-20T17:28:07;95752.59;;;2.02;100.00
68508;BME280;55510;49.560;19.090;2023-12-20T17:31:08;95739.66;;;2.01;100.00
68508;BME280;55510;49.560;19.090;2023-12-20T17:34:09;95758.63;;;2.03;100.00
68508;BME280;55510;49.560;19.090;2023-12-20T17:37:11;95746.72;;;2.00;100.00
68508;BME280;55510;49.560;19.090;2023-12-20T17:40:12;95759.44;;;1.97;100.00
68508;BME280;55510;49.560;19.090;2023-12-20T17:43:13;95756.41;;;2.00;100.00
68508;BME280;55510;49.560;19.090;2023-12-20T17:46:13;95748.72;;;1.98;100.00
68508;BME280;55510;49.560;19.090;2023-12-20T17:49:15;95740.06;;;1.98;100.00
68508;BME280;55510;49.560;19.090;2023-12-20T17:52:15;95744.72;;;2.02;100.00
68508;BME280;55510;49.560;19.090;2023-12-20T17:55:16;95743.06;;;2.08;100.00
68508;BME280;55510;49.560;19.090;2023-12-20T17:58:17;95756.59;;;2.12;100.00
68508;BME280;55510;49.560;19.090;2023-12-20T18:01:17;95756.19;;;2.08;100.00
68508;BME280;55510;49.560;19.090;2023-12-20T18:04:21;95757.38;;;2.19;100.00
68508;BME280;55510;49.560;19.090;2023-12-20T18:07:23;95753.75;;;2.13;100.00
68508;BME280;55510;49.560;19.090;2023-12-20T18:10:24;95752.94;;;2.20;100.00
68508;BME280;55510;49.560;19.090;2023-12-20T18:13:25;95750.75;;;2.03;100.00
68508;BME280;55510;49.560;19.090;2023-12-20T18:16:25;95749.31;;;2.14;100.00
68508;BME280;55510;49.560;19.090;2023-12-20T18:19:26;95753.56;;;2.08;100.00
68508;BME280;55510;49.560;19.090;2023-12-20T18:22:27;95753.38;;;1.96;100.00
68508;BME280;55510;49.560;19.090;2023-12-20T18:25:27;95764.50;;;1.92;100.00
68508;BME280;55510;49.560;19.090;2023-12-20T18:28:29;95760.88;;;1.93;100.00
68508;BME280;55510;49.560;19.090;2023-12-20T18:31:30;95764.69;;;1.97;100.00
68508;BME280;55510;49.560;19.090;2023-12-20T18:34:31;95766.94;;;1.86;100.00
68508;BME280;55510;49.560;19.090;2023-12-20T18:37:34;95782.88;;;1.85;100.00
68508;BME280;55510;49.560;19.090;2023-12-20T18:40:35;95774.41;;;1.90;100.00
68508;BME280;55510;49.560;19.090;2023-12-20T18:43:36;95766.28;;;2.11;100.00
68508;BME280;55510;49.560;19.090;2023-12-20T18:46:37;95763.69;;;2.05;100.00
68508;BME280;55510;49.560;19.090;2023-12-20T18:49:37;95760.84;;;2.06;100.00
68508;BME280;55510;49.560;19.090;2023-12-20T18:52:38;95762.84;;;2.11;100.00
68508;BME280;55510;49.560;19.090;2023-12-20T18:55:40;95766.31;;;1.98;100.00
68508;BME280;55510;49.560;19.090;2023-12-20T18:58:41;95767.31;;;1.90;100.00
68508;BME280;55510;49.560;19.090;2023-12-20T19:01:45;95787.94;;;1.86;100.00
68508;BME280;55510;49.560;19.090;2023-12-20T19:04:46;95792.56;;;1.84;100.00
68508;BME280;55510;49.560;19.090;2023-12-20T19:07:47;95792.56;;;1.84;100.00
68508;BME280;55510;49.560;19.090;2023-12-20T19:10:48;95784.91;;;1.90;100.00
68508;BME280;55510;49.560;19.090;2023-12-20T19:13:48;95796.59;;;1.94;100.00
68508;BME280;55510;49.560;19.090;2023-12-20T19:16:49;95788.31;;;1.97;100.00
68508;BME280;55510;49.560;19.090;2023-12-20T19:19:50;95788.72;;;1.94;100.00
68508;BME280;55510;49.560;19.090;2023-12-20T19:22:51;95780.63;;;1.95;100.00
68508;BME280;55510;49.560;19.090;2023-12-20T19:25:52;95790.34;;;1.95;100.00
68508;BME280;55510;49.560;19.090;2023-12-20T19:28:52;95784.91;;;1.90;100.00
68508;BME280;55510;49.560;19.090;2023-12-20T19:31:53;95777.81;;;1.97;100.00
68508;BME280;55510;49.560;19.090;2023-12-20T19:34:55;95771.16;;;1.94;100.00
68508;BME280;55510;49.560;19.090;2023-12-20T19:37:56;95777.63;;;1.92;100.00
68508;BME280;55510;49.560;19.090;2023-12-20T19:40:57;95773.56;;;1.89;100.00
68508;BME280;55510;49.560;19.090;2023-12-20T19:43:57;95765.91;;;1.87;100.00
68508;BME280;55510;49.560;19.090;2023-12-20T19:47:02;95763.91;;;1.83;100.00
68508;BME280;55510;49.560;19.090;2023-12-20T19:50:02;95741.91;;;1.91;100.00
68508;BME280;55510;49.560;19.090;2023-12-20T19:53:03;95739.31;;;1.77;100.00
68508;BME280;55510;49.560;19.090;2023-12-20T19:56:05;95727.78;;;1.65;100.00
68508;BME280;55510;49.560;19.090;2023-12-20T19:59:06;95727.59;;;1.59;100.00
68508;BME280;55510;49.560;19.090;2023-12-20T20:02:06;95725.38;;;1.50;100.00
68508;BME280;55510;49.560;19.090;2023-12-20T20:05:07;95724.97;;;1.46;100.00
68508;BME280;55510;49.560;19.090;2023-12-20T20:08:10;95732.44;;;1.36;100.00
68508;BME280;55510;49.560;19.090;2023-12-20T20:11:11;95722.97;;;1.28;100.00
68508;BME280;55510;49.560;19.090;2023-12-20T20:14:13;95731.00;;;1.26;100.00
68508;BME280;55510;49.560;19.090;2023-12-20T20:17:14;95721.94;;;1.15;100.00
68508;BME280;55510;49.560;19.090;2023-12-20T20:20:14;95725.75;;;1.13;100.00
68508;BME280;55510;49.560;19.090;2023-12-20T20:23:15;95719.31;;;1.09;100.00
68508;BME280;55510;49.560;19.090;2023-12-20T20:26:16;95712.25;;;1.09;100.00
68508;BME280;55510;49.560;19.090;2023-12-20T20:29:17;95710.41;;;1.03;100.00
68508;BME280;55510;49.560;19.090;2023-12-20T20:32:18;95715.06;;;1.08;100.00
68508;BME280;55510;49.560;19.090;2023-12-20T20:35:19;95713.06;;;1.10;100.00
68508;BME280;55510;49.560;19.090;2023-12-20T20:38:20;95709.63;;;1.16;100.00
68508;BME280;55510;49.560;19.090;2023-12-20T20:41:21;95723.53;;;1.10;100.00
68508;BME280;55510;49.560;19.090;2023-12-20T20:44:22;95726.56;;;1.07;100.00
68508;BME280;55510;49.560;19.090;2023-12-20T20:47:23;95727.97;;;1.03;100.00
68508;BME280;55510;49.560;19.090;2023-12-20T20:50:24;95719.09;;;1.17;100.00
68508;BME280;55510;49.560;19.090;2023-12-20T20:53:24;95717.50;;;1.16;100.00
68508;BME280;55510;49.560;19.090;2023-12-20T20:56:25;95714.28;;;1.14;100.00
68508;BME280;55510;49.560;19.090;2023-12-20T20:59:26;95713.47;;;1.13;100.00
68508;BME280;55510;49.560;19.090;2023-12-20T21:02:27;95710.66;;;1.15;100.00
68508;BME280;55510;49.560;19.090;2023-12-20T21:05:29;95708.59;;;1.10;100.00
68508;BME280;55510;49.560;19.090;2023-12-20T21:08:30;95706.59;;;1.06;100.00
68508;BME280;55510;49.560;19.090;2023-12-20T21:11:31;95710.03;;;0.99;100.00
68508;BME280;55510;49.560;19.090;2023-12-20T21:14:32;95706.59;;;0.92;100.00
68508;BME280;55510;49.560;19.090;2023-12-20T21:17:33;95717.06;;;0.92;100.00
68508;BME280;55510;49.560;19.090;2023-12-20T21:20:33;95710.44;;;0.96;100.00
68508;BME280;55510;49.560;19.090;2023-12-20T21:23:34;95716.28;;;0.98;100.00
68508;BME280;55510;49.560;19.090;2023-12-20T21:26:35;95708.41;;;0.98;100.00
68508;BME280;55510;49.560;19.090;2023-12-20T21:29:36;95707.81;;;0.96;100.00
68508;BME280;55510;49.560;19.090;2023-12-20T21:32:37;95711.44;;;1.09;100.00